Currently 60°F in Moreno Valley, California, USA
60°F
60°F / F
calm
0.00"
Saturday, May 25, 2024 10:28 AM PDT

Moreno Valley, California Weather Summary
Last 36 Hours

Temperature Winds Hourly Humidity Dewpoint
Time Report Norm Report Norm Max Gusts Precip. Rpt. Norm Rpt. Norm Pressure
1,2Sat 10:28 AM  59.5°F  68°F  calm  3 mph  7 mph  0.00"  91%  64%  57°F  55°F  N/A
Sat 10:00 AM  57.7°F  66°F  3 mph S  3 mph  5 mph  0.00"  93%  68%  56°F  55°F  N/A
Sat 09:00 AM  54.3°F  62°F  calm  2 mph  none  0.00"  97%  76%  54°F  55°F  N/A
Sat 08:00 AM  53.5°F  59°F  calm  2 mph  8 mph  0.00"  98%  85%  53°F  55°F  N/A
Sat 07:00 AM  53.6°F  55°F  4 mph NW  1 mph  7 mph  0.00"  98%  91%  53°F  53°F  N/A
Sat 06:00 AM  53.4°F  54°F  2 mph W  1 mph  7 mph  0.00"  98%  92%  53°F  51°F  N/A
Sat 05:00 AM  54.1°F  54°F  3 mph W  1 mph  7 mph  0.00"  98%  92%  53°F  51°F  N/A
Sat 04:00 AM  54.5°F  54°F  2 mph W  1 mph  6 mph  0.00"  97%  91%  54°F  51°F  N/A
Sat 03:00 AM  12.9°F  55°F  2 mph NW  1 mph  7 mph  0.00"  97%  90%  12°F  52°F  N/A
Sat 02:00 AM  13.4°F  55°F  4 mph W  1 mph  7 mph  0.00"  96%  89%  12°F  52°F  N/A
Sat 01:00 AM  12.4°F  57°F  calm  1 mph  7 mph  0.00"  95%  87%  11°F  53°F  N/A
3Sat 12:25 AM  7.8°F  57°F  2 mph NW  1 mph  7 mph  ----  93%  85%  6°F  53°F  N/A
Sat 12:00 AM  11.8°F  58°F  4 mph NW  1 mph  9 mph  0.00"  93%  84%  10°F  53°F  N/A
Fri 11:00 PM  7.9°F  59°F  2 mph NW  2 mph  9 mph  0.00"  93%  81%  6°F  53°F  N/A
Fri 10:00 PM  0.0°F  61°F  1 mph W  2 mph  11 mph  0.00"  92%  77%  -2°F  53°F  28.17"
Fri 09:00 PM  58.0°F  63°F  5 mph NW  3 mph  11 mph  0.00"  90%  72%  55°F  53°F  28.15"
Fri 08:00 PM  60.2°F  66°F  6 mph NW  4 mph  11 mph  0.00"  86%  65%  56°F  53°F  28.14"
Fri 07:00 PM  63.5°F  70°F  6 mph NW  6 mph  12 mph  0.00"  78%  57%  56°F  53°F  28.13"
Fri 06:00 PM  65.6°F  74°F  4 mph W  6 mph  11 mph  0.00"  72%  50%  56°F  53°F  28.14"
Fri 05:00 PM  67.0°F  77°F  3 mph SW  7 mph  10 mph  0.00"  70%  46%  57°F  54°F  28.15"
Fri 04:00 PM  66.3°F  78°F  7 mph W  6 mph  11 mph  0.00"  74%  44%  58°F  53°F  28.16"
Fri 03:00 PM  67.7°F  78°F  3 mph NW  6 mph  10 mph  0.00"  72%  43%  58°F  53°F  28.17"
Fri 02:00 PM  64.3°F  77°F  calm  6 mph  8 mph  0.00"  80%  45%  58°F  53°F  28.20"
Fri 01:00 PM  60.6°F  75°F  3 mph SW  5 mph  6 mph  0.00"  86%  48%  56°F  53°F  28.22"
Fri 12:00 PM  15.3°F  72°F  calm  5 mph  8 mph  0.00"  92%  53%  13°F  54°F  28.22"
Fri 11:00 AM  13.8°F  69°F  4 mph SW  4 mph  9 mph  0.00"  92%  60%  12°F  54°F  28.21"
Fri 10:00 AM  15.2°F  66°F  4 mph SE  3 mph  8 mph  0.00"  94%  68%  14°F  55°F  28.20"
Fri 09:00 AM  4.9°F  63°F  calm  3 mph  4 mph  0.00"  96%  77%  4°F  55°F  28.20"
Fri 08:00 AM  13.5°F  59°F  1 mph NW  2 mph  6 mph  0.00"  97%  85%  13°F  55°F  28.19"
Fri 07:00 AM  14.3°F  56°F  2 mph S  1 mph  7 mph  0.00"  98%  91%  14°F  53°F  28.17"
Fri 06:00 AM  18.1°F  54°F  4 mph S  1 mph  8 mph  0.00"  97%  92%  17°F  51°F  28.16"
Fri 05:00 AM  14.7°F  54°F  4 mph NW  1 mph  7 mph  0.00"  97%  91%  14°F  51°F  28.16"
Fri 04:00 AM  13.3°F  54°F  5 mph NW  1 mph  8 mph  0.00"  96%  91%  12°F  52°F  28.16"
Fri 03:00 AM  23.3°F  55°F  2 mph W  1 mph  7 mph  0.00"  96%  90%  22°F  52°F  28.16"
Fri 02:00 AM  5.5°F  55°F  6 mph W  1 mph  7 mph  0.00"  95%  89%  4°F  52°F  28.16"
Fri 01:00 AM  56.7°F  57°F  4 mph SW  1 mph  6 mph  0.00"  94%  87%  55°F  53°F  28.17"
Fri 12:00 AM  56.9°F  58°F  3 mph NW  2 mph  5 mph  0.00"  94%  85%  55°F  53°F  28.19"
Thu 11:00 PM  56.7°F  59°F  1 mph NW  2 mph  7 mph  0.00"  93%  81%  55°F  53°F  28.19"

  1. Current weather data. No green row appears if the current weather data is also the high or low for the current day.
  2. High temperature for the current day.
  3. Low temperature for the current day.

The Moreno Valley, California weather pages are a service of WeatherCurrents. Moreno Valley is located in Southern California's Inland Empire, east of Riverside and north of Perris, along the State Route 60 freeway.
Copyright ©2024  WeatherCurrents. All rights reserved. - Submit questions and comments - Privacy Policy

This page automatically refreshes every 10 minutes.